sensor_id;sensor_type;location;lat;lon;timestamp;P1;durP1;ratioP1;P2;durP2;ratioP2
41263;SDS011;26998;48.714;9.414;2023-03-16T00:00:13;21.07;;;12.80;;
41263;SDS011;26998;48.714;9.414;2023-03-16T00:02:40;21.40;;;14.13;;
41263;SDS011;26998;48.714;9.414;2023-03-16T00:05:08;19.53;;;13.27;;
41263;SDS011;26998;48.714;9.414;2023-03-16T00:07:36;19.80;;;12.97;;
41263;SDS011;26998;48.714;9.414;2023-03-16T00:10:03;19.73;;;13.23;;
41263;SDS011;26998;48.714;9.414;2023-03-16T00:12:31;20.17;;;13.50;;
41263;SDS011;26998;48.714;9.414;2023-03-16T00:14:57;27.07;;;14.47;;
41263;SDS011;26998;48.714;9.414;2023-03-16T00:17:24;23.17;;;13.60;;
41263;SDS011;26998;48.714;9.414;2023-03-16T00:19:54;18.43;;;12.83;;
41263;SDS011;26998;48.714;9.414;2023-03-16T00:22:24;20.98;;;13.30;;
41263;SDS011;26998;48.714;9.414;2023-03-16T00:24:52;18.97;;;13.73;;
41263;SDS011;26998;48.714;9.414;2023-03-16T00:27:20;22.80;;;13.83;;
41263;SDS011;26998;48.714;9.414;2023-03-16T00:29:49;18.50;;;13.30;;
41263;SDS011;26998;48.714;9.414;2023-03-16T00:32:17;24.37;;;13.70;;
41263;SDS011;26998;48.714;9.414;2023-03-16T00:34:46;20.50;;;13.90;;
41263;SDS011;26998;48.714;9.414;2023-03-16T00:37:14;20.03;;;13.13;;
41263;SDS011;26998;48.714;9.414;2023-03-16T00:39:44;20.83;;;13.77;;
41263;SDS011;26998;48.714;9.414;2023-03-16T00:42:12;19.60;;;12.97;;
41263;SDS011;26998;48.714;9.414;2023-03-16T00:44:40;23.80;;;15.40;;
41263;SDS011;26998;48.714;9.414;2023-03-16T00:47:07;28.83;;;16.30;;
41263;SDS011;26998;48.714;9.414;2023-03-16T00:49:35;22.53;;;14.53;;
41263;SDS011;26998;48.714;9.414;2023-03-16T00:52:02;21.87;;;13.57;;
41263;SDS011;26998;48.714;9.414;2023-03-16T00:54:30;23.10;;;14.70;;
41263;SDS011;26998;48.714;9.414;2023-03-16T00:56:56;20.37;;;13.70;;
41263;SDS011;26998;48.714;9.414;2023-03-16T00:59:23;21.13;;;14.27;;
41263;SDS011;26998;48.714;9.414;2023-03-16T01:01:53;24.00;;;14.13;;
41263;SDS011;26998;48.714;9.414;2023-03-16T01:04:21;23.07;;;13.50;;
41263;SDS011;26998;48.714;9.414;2023-03-16T01:06:48;21.07;;;13.97;;
41263;SDS011;26998;48.714;9.414;2023-03-16T01:09:14;22.43;;;14.70;;
41263;SDS011;26998;48.714;9.414;2023-03-16T01:11:41;23.07;;;13.30;;
41263;SDS011;26998;48.714;9.414;2023-03-16T01:14:08;24.30;;;13.50;;
41263;SDS011;26998;48.714;9.414;2023-03-16T01:16:35;22.63;;;13.37;;
41263;SDS011;26998;48.714;9.414;2023-03-16T01:19:01;23.80;;;14.77;;
41263;SDS011;26998;48.714;9.414;2023-03-16T01:21:28;25.07;;;15.20;;
41263;SDS011;26998;48.714;9.414;2023-03-16T01:23:55;24.37;;;14.97;;
41263;SDS011;26998;48.714;9.414;2023-03-16T01:26:21;24.50;;;14.93;;
41263;SDS011;26998;48.714;9.414;2023-03-16T01:28:48;26.13;;;15.83;;
41263;SDS011;26998;48.714;9.414;2023-03-16T01:31:14;22.90;;;14.27;;
41263;SDS011;26998;48.714;9.414;2023-03-16T01:33:41;25.73;;;14.93;;
41263;SDS011;26998;48.714;9.414;2023-03-16T01:36:12;24.80;;;15.60;;
41263;SDS011;26998;48.714;9.414;2023-03-16T01:38:40;24.17;;;14.70;;
41263;SDS011;26998;48.714;9.414;2023-03-16T01:41:08;25.40;;;15.57;;
41263;SDS011;26998;48.714;9.414;2023-03-16T01:43:37;25.80;;;15.10;;
41263;SDS011;26998;48.714;9.414;2023-03-16T01:48:43;28.47;;;15.63;;
41263;SDS011;26998;48.714;9.414;2023-03-16T01:51:23;26.20;;;15.30;;
41263;SDS011;26998;48.714;9.414;2023-03-16T01:53:55;24.75;;;15.73;;
41263;SDS011;26998;48.714;9.414;2023-03-16T01:56:25;26.80;;;15.60;;
41263;SDS011;26998;48.714;9.414;2023-03-16T01:58:56;23.90;;;15.00;;
41263;SDS011;26998;48.714;9.414;2023-03-16T02:01:25;25.23;;;14.03;;
41263;SDS011;26998;48.714;9.414;2023-03-16T02:03:56;21.97;;;14.87;;
41263;SDS011;26998;48.714;9.414;2023-03-16T02:06:32;23.55;;;14.70;;
41263;SDS011;26998;48.714;9.414;2023-03-16T02:09:00;24.33;;;15.30;;
41263;SDS011;26998;48.714;9.414;2023-03-16T02:11:29;21.63;;;13.97;;
41263;SDS011;26998;48.714;9.414;2023-03-16T02:13:57;21.67;;;14.33;;
41263;SDS011;26998;48.714;9.414;2023-03-16T02:16:32;24.30;;;14.57;;
41263;SDS011;26998;48.714;9.414;2023-03-16T02:18:59;21.70;;;14.73;;
41263;SDS011;26998;48.714;9.414;2023-03-16T02:24:29;26.60;;;16.63;;
41263;SDS011;26998;48.714;9.414;2023-03-16T02:26:57;24.63;;;15.70;;
41263;SDS011;26998;48.714;9.414;2023-03-16T02:32:26;27.10;;;14.90;;
41263;SDS011;26998;48.714;9.414;2023-03-16T02:34:56;22.90;;;14.50;;
41263;SDS011;26998;48.714;9.414;2023-03-16T02:37:25;22.20;;;13.77;;
41263;SDS011;26998;48.714;9.414;2023-03-16T02:39:52;24.30;;;14.30;;
41263;SDS011;26998;48.714;9.414;2023-03-16T02:42:19;24.43;;;15.00;;
41263;SDS011;26998;48.714;9.414;2023-03-16T02:44:49;25.83;;;15.30;;
41263;SDS011;26998;48.714;9.414;2023-03-16T02:47:41;22.43;;;15.00;;
41263;SDS011;26998;48.714;9.414;2023-03-16T02:50:08;19.87;;;13.83;;
41263;SDS011;26998;48.714;9.414;2023-03-16T02:52:36;24.03;;;14.73;;
41263;SDS011;26998;48.714;9.414;2023-03-16T02:55:04;23.07;;;14.63;;
41263;SDS011;26998;48.714;9.414;2023-03-16T02:57:33;24.47;;;15.47;;
41263;SDS011;26998;48.714;9.414;2023-03-16T02:59:59;25.20;;;16.13;;
41263;SDS011;26998;48.714;9.414;2023-03-16T03:02:26;23.93;;;15.13;;
41263;SDS011;26998;48.714;9.414;2023-03-16T03:04:52;27.17;;;15.70;;
41263;SDS011;26998;48.714;9.414;2023-03-16T03:07:19;23.43;;;14.73;;
41263;SDS011;26998;48.714;9.414;2023-03-16T03:09:46;24.10;;;15.30;;
41263;SDS011;26998;48.714;9.414;2023-03-16T03:12:13;25.60;;;15.63;;
41263;SDS011;26998;48.714;9.414;2023-03-16T03:14:39;26.77;;;15.40;;
41263;SDS011;26998;48.714;9.414;2023-03-16T03:17:06;22.67;;;14.63;;
41263;SDS011;26998;48.714;9.414;2023-03-16T03:19:34;27.40;;;14.33;;
41263;SDS011;26998;48.714;9.414;2023-03-16T03:22:02;23.90;;;14.30;;
41263;SDS011;26998;48.714;9.414;2023-03-16T03:24:29;24.07;;;14.47;;
41263;SDS011;26998;48.714;9.414;2023-03-16T03:26:56;23.20;;;14.07;;
41263;SDS011;26998;48.714;9.414;2023-03-16T03:29:23;23.87;;;15.40;;
41263;SDS011;26998;48.714;9.414;2023-03-16T03:31:49;22.90;;;14.57;;
41263;SDS011;26998;48.714;9.414;2023-03-16T03:34:16;25.27;;;14.17;;
41263;SDS011;26998;48.714;9.414;2023-03-16T03:36:42;25.83;;;16.13;;
41263;SDS011;26998;48.714;9.414;2023-03-16T03:39:08;21.67;;;13.80;;
41263;SDS011;26998;48.714;9.414;2023-03-16T03:41:35;24.70;;;15.27;;
41263;SDS011;26998;48.714;9.414;2023-03-16T03:44:02;23.43;;;15.13;;
41263;SDS011;26998;48.714;9.414;2023-03-16T03:46:29;23.07;;;14.93;;
41263;SDS011;26998;48.714;9.414;2023-03-16T03:48:56;30.03;;;15.30;;
41263;SDS011;26998;48.714;9.414;2023-03-16T03:51:22;23.10;;;14.40;;
41263;SDS011;26998;48.714;9.414;2023-03-16T03:53:49;23.47;;;14.60;;
41263;SDS011;26998;48.714;9.414;2023-03-16T03:56:15;23.57;;;14.50;;
41263;SDS011;26998;48.714;9.414;2023-03-16T03:58:42;26.97;;;15.30;;
41263;SDS011;26998;48.714;9.414;2023-03-16T04:01:09;25.17;;;14.23;;
41263;SDS011;26998;48.714;9.414;2023-03-16T04:03:36;23.47;;;13.77;;
41263;SDS011;26998;48.714;9.414;2023-03-16T04:06:02;26.97;;;15.37;;
41263;SDS011;26998;48.714;9.414;2023-03-16T04:08:29;25.27;;;15.20;;
41263;SDS011;26998;48.714;9.414;2023-03-16T04:10:55;26.27;;;15.70;;
41263;SDS011;26998;48.714;9.414;2023-03-16T04:13:22;29.60;;;16.13;;
41263;SDS011;26998;48.714;9.414;2023-03-16T04:15:48;26.00;;;15.93;;
41263;SDS011;26998;48.714;9.414;2023-03-16T04:18:20;24.53;;;15.17;;
41263;SDS011;26998;48.714;9.414;2023-03-16T04:20:47;25.77;;;15.70;;
41263;SDS011;26998;48.714;9.414;2023-03-16T04:23:13;25.27;;;15.27;;
41263;SDS011;26998;48.714;9.414;2023-03-16T04:25:40;25.10;;;15.57;;
41263;SDS011;26998;48.714;9.414;2023-03-16T04:28:06;23.70;;;15.30;;
41263;SDS011;26998;48.714;9.414;2023-03-16T04:30:34;25.83;;;15.40;;
41263;SDS011;26998;48.714;9.414;2023-03-16T04:33:01;27.50;;;15.50;;
41263;SDS011;26998;48.714;9.414;2023-03-16T04:35:27;27.77;;;16.83;;
41263;SDS011;26998;48.714;9.414;2023-03-16T04:37:53;33.37;;;17.10;;
41263;SDS011;26998;48.714;9.414;2023-03-16T04:40:20;30.50;;;15.60;;
41263;SDS011;26998;48.714;9.414;2023-03-16T04:42:46;28.50;;;16.10;;
41263;SDS011;26998;48.714;9.414;2023-03-16T04:45:14;31.23;;;17.40;;
41263;SDS011;26998;48.714;9.414;2023-03-16T04:47:41;28.67;;;15.83;;
41263;SDS011;26998;48.714;9.414;2023-03-16T04:50:09;27.70;;;15.33;;
41263;SDS011;26998;48.714;9.414;2023-03-16T04:52:36;32.53;;;17.50;;
41263;SDS011;26998;48.714;9.414;2023-03-16T04:55:03;27.33;;;16.03;;
41263;SDS011;26998;48.714;9.414;2023-03-16T04:57:30;28.33;;;15.97;;
41263;SDS011;26998;48.714;9.414;2023-03-16T04:59:57;31.50;;;17.83;;
41263;SDS011;26998;48.714;9.414;2023-03-16T05:02:23;30.17;;;16.60;;
41263;SDS011;26998;48.714;9.414;2023-03-16T05:04:49;29.07;;;15.80;;
41263;SDS011;26998;48.714;9.414;2023-03-16T05:07:16;27.73;;;15.57;;
41263;SDS011;26998;48.714;9.414;2023-03-16T05:09:42;34.87;;;17.90;;
41263;SDS011;26998;48.714;9.414;2023-03-16T05:12:09;29.60;;;17.47;;
41263;SDS011;26998;48.714;9.414;2023-03-16T05:14:35;30.57;;;17.20;;
41263;SDS011;26998;48.714;9.414;2023-03-16T05:17:02;31.83;;;18.03;;
41263;SDS011;26998;48.714;9.414;2023-03-16T05:19:29;28.17;;;15.77;;
41263;SDS011;26998;48.714;9.414;2023-03-16T05:21:55;34.90;;;16.50;;
41263;SDS011;26998;48.714;9.414;2023-03-16T05:24:22;33.17;;;17.03;;
41263;SDS011;26998;48.714;9.414;2023-03-16T05:26:48;31.67;;;16.83;;
41263;SDS011;26998;48.714;9.414;2023-03-16T05:29:14;26.10;;;15.30;;
41263;SDS011;26998;48.714;9.414;2023-03-16T05:31:41;33.10;;;17.70;;
41263;SDS011;26998;48.714;9.414;2023-03-16T05:34:07;28.87;;;17.77;;
41263;SDS011;26998;48.714;9.414;2023-03-16T05:36:34;28.07;;;16.13;;
41263;SDS011;26998;48.714;9.414;2023-03-16T05:39:00;29.77;;;16.60;;
41263;SDS011;26998;48.714;9.414;2023-03-16T05:41:28;28.93;;;15.93;;
41263;SDS011;26998;48.714;9.414;2023-03-16T05:43:54;28.10;;;16.33;;
41263;SDS011;26998;48.714;9.414;2023-03-16T05:46:21;29.47;;;17.80;;
41263;SDS011;26998;48.714;9.414;2023-03-16T05:48:48;32.70;;;17.17;;
41263;SDS011;26998;48.714;9.414;2023-03-16T05:51:15;29.30;;;17.23;;
41263;SDS011;26998;48.714;9.414;2023-03-16T05:53:41;30.33;;;17.00;;
41263;SDS011;26998;48.714;9.414;2023-03-16T05:56:08;30.30;;;18.67;;
41263;SDS011;26998;48.714;9.414;2023-03-16T05:58:35;37.53;;;18.47;;
41263;SDS011;26998;48.714;9.414;2023-03-16T06:01:01;30.03;;;17.20;;
41263;SDS011;26998;48.714;9.414;2023-03-16T06:03:28;28.13;;;16.17;;
41263;SDS011;26998;48.714;9.414;2023-03-16T06:05:54;31.77;;;18.73;;
41263;SDS011;26998;48.714;9.414;2023-03-16T06:08:21;30.67;;;17.83;;
41263;SDS011;26998;48.714;9.414;2023-03-16T06:10:50;29.37;;;16.30;;
41263;SDS011;26998;48.714;9.414;2023-03-16T06:13:17;30.07;;;17.30;;
41263;SDS011;26998;48.714;9.414;2023-03-16T06:15:45;33.03;;;17.47;;
41263;SDS011;26998;48.714;9.414;2023-03-16T06:18:11;35.30;;;17.67;;
41263;SDS011;26998;48.714;9.414;2023-03-16T06:20:38;28.50;;;16.70;;
41263;SDS011;26998;48.714;9.414;2023-03-16T06:23:04;33.13;;;17.70;;
41263;SDS011;26998;48.714;9.414;2023-03-16T06:25:32;25.90;;;15.47;;
41263;SDS011;26998;48.714;9.414;2023-03-16T06:27:59;30.00;;;17.93;;
41263;SDS011;26998;48.714;9.414;2023-03-16T06:30:26;32.93;;;17.13;;
41263;SDS011;26998;48.714;9.414;2023-03-16T06:32:53;33.40;;;18.63;;
41263;SDS011;26998;48.714;9.414;2023-03-16T06:35:19;30.13;;;18.53;;
41263;SDS011;26998;48.714;9.414;2023-03-16T06:37:46;28.93;;;16.90;;
41263;SDS011;26998;48.714;9.414;2023-03-16T06:40:13;32.53;;;18.60;;
41263;SDS011;26998;48.714;9.414;2023-03-16T06:42:40;46.30;;;23.67;;
41263;SDS011;26998;48.714;9.414;2023-03-16T06:45:08;38.00;;;21.07;;
41263;SDS011;26998;48.714;9.414;2023-03-16T06:47:36;32.97;;;18.47;;
41263;SDS011;26998;48.714;9.414;2023-03-16T06:50:05;27.20;;;16.23;;
41263;SDS011;26998;48.714;9.414;2023-03-16T06:52:35;26.33;;;16.60;;
41263;SDS011;26998;48.714;9.414;2023-03-16T06:55:03;27.57;;;15.87;;
41263;SDS011;26998;48.714;9.414;2023-03-16T06:57:29;24.43;;;14.90;;
41263;SDS011;26998;48.714;9.414;2023-03-16T06:59:56;23.60;;;15.07;;
41263;SDS011;26998;48.714;9.414;2023-03-16T07:02:22;23.50;;;14.50;;
41263;SDS011;26998;48.714;9.414;2023-03-16T07:04:49;20.30;;;13.53;;
41263;SDS011;26998;48.714;9.414;2023-03-16T07:07:15;22.37;;;14.00;;
41263;SDS011;26998;48.714;9.414;2023-03-16T07:09:42;19.90;;;12.93;;
41263;SDS011;26998;48.714;9.414;2023-03-16T07:12:08;19.07;;;13.27;;
41263;SDS011;26998;48.714;9.414;2023-03-16T07:14:35;18.57;;;12.97;;
41263;SDS011;26998;48.714;9.414;2023-03-16T07:17:02;20.87;;;12.10;;
41263;SDS011;26998;48.714;9.414;2023-03-16T07:19:29;21.30;;;12.73;;
41263;SDS011;26998;48.714;9.414;2023-03-16T07:21:57;19.27;;;12.97;;
41263;SDS011;26998;48.714;9.414;2023-03-16T07:24:24;17.40;;;11.90;;
41263;SDS011;26998;48.714;9.414;2023-03-16T07:26:50;18.35;;;12.30;;
41263;SDS011;26998;48.714;9.414;2023-03-16T07:29:17;17.00;;;12.00;;
41263;SDS011;26998;48.714;9.414;2023-03-16T07:31:43;20.88;;;12.15;;
41263;SDS011;26998;48.714;9.414;2023-03-16T07:34:10;19.05;;;11.82;;
41263;SDS011;26998;48.714;9.414;2023-03-16T07:36:37;15.23;;;10.38;;
41263;SDS011;26998;48.714;9.414;2023-03-16T07:39:03;15.00;;;10.48;;
41263;SDS011;26998;48.714;9.414;2023-03-16T07:41:31;16.13;;;11.27;;
41263;SDS011;26998;48.714;9.414;2023-03-16T07:44:01;17.27;;;10.90;;
41263;SDS011;26998;48.714;9.414;2023-03-16T07:46:28;15.25;;;11.00;;
41263;SDS011;26998;48.714;9.414;2023-03-16T07:48:55;14.27;;;10.90;;
41263;SDS011;26998;48.714;9.414;2023-03-16T07:51:21;15.63;;;11.05;;
41263;SDS011;26998;48.714;9.414;2023-03-16T07:53:48;15.90;;;10.57;;
41263;SDS011;26998;48.714;9.414;2023-03-16T07:56:15;16.75;;;11.50;;
41263;SDS011;26998;48.714;9.414;2023-03-16T07:58:41;16.73;;;10.55;;
41263;SDS011;26998;48.714;9.414;2023-03-16T08:01:08;15.20;;;10.27;;
41263;SDS011;26998;48.714;9.414;2023-03-16T08:03:35;15.18;;;10.43;;
41263;SDS011;26998;48.714;9.414;2023-03-16T08:06:03;15.52;;;10.20;;
41263;SDS011;26998;48.714;9.414;2023-03-16T08:08:32;16.10;;;10.82;;
41263;SDS011;26998;48.714;9.414;2023-03-16T08:10:58;17.20;;;10.82;;
41263;SDS011;26998;48.714;9.414;2023-03-16T08:13:25;15.73;;;10.75;;
41263;SDS011;26998;48.714;9.414;2023-03-16T08:15:52;16.60;;;10.98;;
41263;SDS011;26998;48.714;9.414;2023-03-16T08:18:19;17.42;;;9.60;;
41263;SDS011;26998;48.714;9.414;2023-03-16T08:20:45;14.85;;;10.38;;
41263;SDS011;26998;48.714;9.414;2023-03-16T08:23:12;14.35;;;10.07;;
41263;SDS011;26998;48.714;9.414;2023-03-16T08:25:40;12.77;;;9.90;;
41263;SDS011;26998;48.714;9.414;2023-03-16T08:28:09;13.43;;;9.63;;
41263;SDS011;26998;48.714;9.414;2023-03-16T08:30:42;16.77;;;9.52;;
41263;SDS011;26998;48.714;9.414;2023-03-16T08:33:10;19.50;;;10.20;;
41263;SDS011;26998;48.714;9.414;2023-03-16T08:35:36;15.13;;;10.85;;
41263;SDS011;26998;48.714;9.414;2023-03-16T08:38:08;11.88;;;8.60;;
41263;SDS011;26998;48.714;9.414;2023-03-16T08:40:35;15.15;;;9.50;;
41263;SDS011;26998;48.714;9.414;2023-03-16T08:43:02;12.63;;;9.02;;
41263;SDS011;26998;48.714;9.414;2023-03-16T08:45:29;13.27;;;9.35;;
41263;SDS011;26998;48.714;9.414;2023-03-16T08:47:56;14.63;;;8.98;;
41263;SDS011;26998;48.714;9.414;2023-03-16T08:50:24;11.93;;;8.93;;
41263;SDS011;26998;48.714;9.414;2023-03-16T08:52:51;12.73;;;8.68;;
41263;SDS011;26998;48.714;9.414;2023-03-16T08:55:19;15.57;;;9.48;;
41263;SDS011;26998;48.714;9.414;2023-03-16T08:57:46;11.55;;;8.68;;
41263;SDS011;26998;48.714;9.414;2023-03-16T09:00:13;13.32;;;8.48;;
41263;SDS011;26998;48.714;9.414;2023-03-16T09:02:47;12.27;;;9.68;;
41263;SDS011;26998;48.714;9.414;2023-03-16T09:05:28;13.15;;;8.52;;
41263;SDS011;26998;48.714;9.414;2023-03-16T09:07:54;13.88;;;8.50;;
41263;SDS011;26998;48.714;9.414;2023-03-16T09:10:21;13.32;;;8.02;;
41263;SDS011;26998;48.714;9.414;2023-03-16T09:12:48;11.82;;;7.57;;
41263;SDS011;26998;48.714;9.414;2023-03-16T09:15:17;9.80;;;6.93;;
41263;SDS011;26998;48.714;9.414;2023-03-16T09:17:44;11.52;;;8.20;;
41263;SDS011;26998;48.714;9.414;2023-03-16T09:20:12;9.52;;;6.93;;
41263;SDS011;26998;48.714;9.414;2023-03-16T09:22:59;8.05;;;6.55;;
41263;SDS011;26998;48.714;9.414;2023-03-16T09:25:26;11.10;;;7.10;;
41263;SDS011;26998;48.714;9.414;2023-03-16T09:27:53;9.35;;;6.38;;
41263;SDS011;26998;48.714;9.414;2023-03-16T09:30:20;7.65;;;6.13;;
41263;SDS011;26998;48.714;9.414;2023-03-16T09:32:47;8.70;;;6.05;;
41263;SDS011;26998;48.714;9.414;2023-03-16T09:35:13;9.38;;;6.30;;
41263;SDS011;26998;48.714;9.414;2023-03-16T09:37:40;8.13;;;6.28;;
41263;SDS011;26998;48.714;9.414;2023-03-16T09:40:23;7.65;;;6.03;;
41263;SDS011;26998;48.714;9.414;2023-03-16T09:42:59;11.05;;;6.30;;
41263;SDS011;26998;48.714;9.414;2023-03-16T09:45:54;7.38;;;5.90;;
41263;SDS011;26998;48.714;9.414;2023-03-16T09:48:29;6.85;;;5.50;;
41263;SDS011;26998;48.714;9.414;2023-03-16T09:50:58;7.80;;;5.13;;
41263;SDS011;26998;48.714;9.414;2023-03-16T09:56:09;6.45;;;5.30;;
41263;SDS011;26998;48.714;9.414;2023-03-16T09:58:40;8.18;;;5.70;;
41263;SDS011;26998;48.714;9.414;2023-03-16T10:07:11;8.68;;;5.18;;
41263;SDS011;26998;48.714;9.414;2023-03-16T10:12:15;10.13;;;5.93;;
41263;SDS011;26998;48.714;9.414;2023-03-16T10:14:44;6.43;;;5.28;;
41263;SDS011;26998;48.714;9.414;2023-03-16T10:20:19;8.57;;;5.50;;
41263;SDS011;26998;48.714;9.414;2023-03-16T10:22:49;7.45;;;5.63;;
41263;SDS011;26998;48.714;9.414;2023-03-16T10:25:19;7.40;;;5.63;;
41263;SDS011;26998;48.714;9.414;2023-03-16T10:27:59;11.25;;;6.57;;
41263;SDS011;26998;48.714;9.414;2023-03-16T10:30:33;6.18;;;4.97;;
41263;SDS011;26998;48.714;9.414;2023-03-16T10:33:03;6.75;;;4.60;;
41263;SDS011;26998;48.714;9.414;2023-03-16T10:38:39;6.97;;;4.78;;
41263;SDS011;26998;48.714;9.414;2023-03-16T10:43:44;5.53;;;4.85;;
41263;SDS011;26998;48.714;9.414;2023-03-16T10:46:11;6.03;;;4.30;;
41263;SDS011;26998;48.714;9.414;2023-03-16T10:48:56;5.63;;;3.83;;
41263;SDS011;26998;48.714;9.414;2023-03-16T10:51:25;5.22;;;3.88;;
41263;SDS011;26998;48.714;9.414;2023-03-16T10:54:02;6.18;;;4.38;;
41263;SDS011;26998;48.714;9.414;2023-03-16T10:56:33;6.80;;;4.10;;
41263;SDS011;26998;48.714;9.414;2023-03-16T10:59:00;5.57;;;4.00;;
41263;SDS011;26998;48.714;9.414;2023-03-16T11:01:27;5.03;;;3.72;;
41263;SDS011;26998;48.714;9.414;2023-03-16T11:03:57;5.20;;;4.05;;
41263;SDS011;26998;48.714;9.414;2023-03-16T11:06:26;3.95;;;3.47;;
41263;SDS011;26998;48.714;9.414;2023-03-16T11:08:54;13.02;;;4.60;;
41263;SDS011;26998;48.714;9.414;2023-03-16T11:11:28;4.82;;;4.35;;
41263;SDS011;26998;48.714;9.414;2023-03-16T11:14:00;5.70;;;4.20;;
41263;SDS011;26998;48.714;9.414;2023-03-16T11:27:23;5.07;;;3.80;;
41263;SDS011;26998;48.714;9.414;2023-03-16T11:30:18;5.63;;;3.30;;
41263;SDS011;26998;48.714;9.414;2023-03-16T11:32:44;4.32;;;3.17;;
41263;SDS011;26998;48.714;9.414;2023-03-16T11:35:16;3.15;;;2.85;;
41263;SDS011;26998;48.714;9.414;2023-03-16T11:40:24;4.50;;;2.95;;
41263;SDS011;26998;48.714;9.414;2023-03-16T11:43:08;4.53;;;2.92;;
41263;SDS011;26998;48.714;9.414;2023-03-16T11:48:41;4.50;;;2.88;;
41263;SDS011;26998;48.714;9.414;2023-03-16T11:51:23;6.00;;;3.45;;
41263;SDS011;26998;48.714;9.414;2023-03-16T11:54:00;6.13;;;3.20;;
41263;SDS011;26998;48.714;9.414;2023-03-16T11:56:38;3.25;;;2.95;;
41263;SDS011;26998;48.714;9.414;2023-03-16T12:07:32;3.70;;;2.95;;
41263;SDS011;26998;48.714;9.414;2023-03-16T12:13:03;3.47;;;2.92;;
41263;SDS011;26998;48.714;9.414;2023-03-16T12:18:16;5.32;;;3.38;;
41263;SDS011;26998;48.714;9.414;2023-03-16T12:20:49;3.03;;;2.67;;
41263;SDS011;26998;48.714;9.414;2023-03-16T12:23:29;3.40;;;2.92;;
41263;SDS011;26998;48.714;9.414;2023-03-16T12:25:59;4.75;;;3.08;;
41263;SDS011;26998;48.714;9.414;2023-03-16T12:28:27;4.32;;;2.95;;
41263;SDS011;26998;48.714;9.414;2023-03-16T12:31:00;3.38;;;2.90;;
41263;SDS011;26998;48.714;9.414;2023-03-16T12:33:34;6.32;;;3.38;;
41263;SDS011;26998;48.714;9.414;2023-03-16T12:39:23;8.90;;;3.10;;
41263;SDS011;26998;48.714;9.414;2023-03-16T12:45:22;6.30;;;3.17;;
41263;SDS011;26998;48.714;9.414;2023-03-16T12:50:59;3.40;;;3.10;;
41263;SDS011;26998;48.714;9.414;2023-03-16T12:53:37;3.75;;;3.17;;
41263;SDS011;26998;48.714;9.414;2023-03-16T12:56:12;5.97;;;3.40;;
41263;SDS011;26998;48.714;9.414;2023-03-16T13:01:11;4.82;;;3.00;;
41263;SDS011;26998;48.714;9.414;2023-03-16T13:03:40;4.90;;;3.35;;
41263;SDS011;26998;48.714;9.414;2023-03-16T13:06:14;6.85;;;3.65;;
41263;SDS011;26998;48.714;9.414;2023-03-16T13:08:53;3.85;;;3.22;;
41263;SDS011;26998;48.714;9.414;2023-03-16T13:11:42;5.22;;;3.67;;
41263;SDS011;26998;48.714;9.414;2023-03-16T13:14:16;6.20;;;3.70;;
41263;SDS011;26998;48.714;9.414;2023-03-16T13:17:05;4.13;;;3.00;;
41263;SDS011;26998;48.714;9.414;2023-03-16T13:19:44;6.57;;;3.65;;
41263;SDS011;26998;48.714;9.414;2023-03-16T13:22:45;5.80;;;3.65;;
41263;SDS011;26998;48.714;9.414;2023-03-16T13:25:57;4.95;;;4.07;;
41263;SDS011;26998;48.714;9.414;2023-03-16T13:28:22;4.78;;;3.20;;
41263;SDS011;26998;48.714;9.414;2023-03-16T13:30:54;4.50;;;3.55;;
41263;SDS011;26998;48.714;9.414;2023-03-16T13:33:31;5.35;;;3.90;;
41263;SDS011;26998;48.714;9.414;2023-03-16T13:35:59;4.78;;;3.38;;
41263;SDS011;26998;48.714;9.414;2023-03-16T13:38:26;4.20;;;3.55;;
41263;SDS011;26998;48.714;9.414;2023-03-16T13:40:55;7.13;;;4.25;;
41263;SDS011;26998;48.714;9.414;2023-03-16T13:43:42;5.75;;;4.20;;
41263;SDS011;26998;48.714;9.414;2023-03-16T13:46:14;4.97;;;3.97;;
41263;SDS011;26998;48.714;9.414;2023-03-16T13:48:42;5.38;;;3.80;;
41263;SDS011;26998;48.714;9.414;2023-03-16T13:51:12;5.75;;;3.80;;
41263;SDS011;26998;48.714;9.414;2023-03-16T13:53:42;6.88;;;3.75;;
41263;SDS011;26998;48.714;9.414;2023-03-16T13:56:27;5.40;;;3.95;;
41263;SDS011;26998;48.714;9.414;2023-03-16T13:58:55;4.50;;;3.50;;
41263;SDS011;26998;48.714;9.414;2023-03-16T14:01:25;4.70;;;3.88;;
41263;SDS011;26998;48.714;9.414;2023-03-16T14:03:54;8.05;;;4.72;;
41263;SDS011;26998;48.714;9.414;2023-03-16T14:06:28;7.55;;;5.07;;
41263;SDS011;26998;48.714;9.414;2023-03-16T14:08:56;5.20;;;4.53;;
41263;SDS011;26998;48.714;9.414;2023-03-16T14:11:26;5.55;;;4.32;;
41263;SDS011;26998;48.714;9.414;2023-03-16T14:13:53;10.13;;;4.43;;
41263;SDS011;26998;48.714;9.414;2023-03-16T14:16:23;5.93;;;4.63;;
41263;SDS011;26998;48.714;9.414;2023-03-16T14:19:10;8.70;;;5.32;;
41263;SDS011;26998;48.714;9.414;2023-03-16T14:21:43;5.43;;;4.35;;
41263;SDS011;26998;48.714;9.414;2023-03-16T14:24:31;7.03;;;5.10;;
41263;SDS011;26998;48.714;9.414;2023-03-16T14:27:16;4.93;;;4.43;;
41263;SDS011;26998;48.714;9.414;2023-03-16T14:29:50;8.77;;;5.38;;
41263;SDS011;26998;48.714;9.414;2023-03-16T14:32:20;7.82;;;5.22;;
41263;SDS011;26998;48.714;9.414;2023-03-16T14:34:59;5.82;;;4.82;;
41263;SDS011;26998;48.714;9.414;2023-03-16T14:37:36;6.40;;;5.18;;
41263;SDS011;26998;48.714;9.414;2023-03-16T14:40:04;7.55;;;5.03;;
41263;SDS011;26998;48.714;9.414;2023-03-16T14:42:33;5.53;;;4.97;;
41263;SDS011;26998;48.714;9.414;2023-03-16T14:45:01;7.75;;;5.30;;
41263;SDS011;26998;48.714;9.414;2023-03-16T14:47:30;6.47;;;5.25;;
41263;SDS011;26998;48.714;9.414;2023-03-16T14:50:07;8.13;;;4.97;;
41263;SDS011;26998;48.714;9.414;2023-03-16T14:52:38;5.63;;;4.40;;
41263;SDS011;26998;48.714;9.414;2023-03-16T14:55:15;8.15;;;4.72;;
41263;SDS011;26998;48.714;9.414;2023-03-16T14:57:44;7.05;;;4.78;;
41263;SDS011;26998;48.714;9.414;2023-03-16T15:00:12;4.88;;;4.32;;
41263;SDS011;26998;48.714;9.414;2023-03-16T15:02:41;5.65;;;4.70;;
41263;SDS011;26998;48.714;9.414;2023-03-16T15:05:14;7.40;;;4.60;;
41263;SDS011;26998;48.714;9.414;2023-03-16T15:07:46;5.03;;;4.28;;
41263;SDS011;26998;48.714;9.414;2023-03-16T15:10:27;7.78;;;4.85;;
41263;SDS011;26998;48.714;9.414;2023-03-16T15:12:56;4.55;;;3.95;;
41263;SDS011;26998;48.714;9.414;2023-03-16T15:15:30;7.63;;;4.68;;
41263;SDS011;26998;48.714;9.414;2023-03-16T15:17:58;8.32;;;4.88;;
41263;SDS011;26998;48.714;9.414;2023-03-16T15:20:28;4.15;;;3.75;;
41263;SDS011;26998;48.714;9.414;2023-03-16T15:22:58;6.25;;;3.55;;
41263;SDS011;26998;48.714;9.414;2023-03-16T15:25:30;5.22;;;3.60;;
41263;SDS011;26998;48.714;9.414;2023-03-16T15:28:20;4.38;;;3.60;;
41263;SDS011;26998;48.714;9.414;2023-03-16T15:30:57;6.13;;;3.95;;
41263;SDS011;26998;48.714;9.414;2023-03-16T15:33:27;5.20;;;3.47;;
41263;SDS011;26998;48.714;9.414;2023-03-16T15:35:55;6.13;;;4.13;;
41263;SDS011;26998;48.714;9.414;2023-03-16T15:38:27;4.22;;;3.25;;
41263;SDS011;26998;48.714;9.414;2023-03-16T15:40:59;4.25;;;2.92;;
41263;SDS011;26998;48.714;9.414;2023-03-16T15:43:27;4.07;;;3.08;;
41263;SDS011;26998;48.714;9.414;2023-03-16T15:45:55;3.40;;;2.80;;
41263;SDS011;26998;48.714;9.414;2023-03-16T15:48:25;4.82;;;3.08;;
41263;SDS011;26998;48.714;9.414;2023-03-16T15:53:31;4.22;;;2.95;;
41263;SDS011;26998;48.714;9.414;2023-03-16T15:56:11;4.55;;;2.53;;
41263;SDS011;26998;48.714;9.414;2023-03-16T15:58:40;5.32;;;3.05;;